Time;durP1;ratioP1;P1;durP2;ratioP2;P2;SDS_P1;SDS_P2;PMS_P1;PMS_P2;Temp;Humidity;BMP_temperature;BMP_pressure;BME280_temperature;BME280_humidity;BME280_pressure;Samples;Min_cycle;Max_cycle;Signal;HPM_P1;HPM_P2
2020/12/06 00:01:42;;;;;;;66.28;34.72;;;2.50;99.90;;;;;;5114528;28;20038;-71
2020/12/06 00:04:09;;;;;;;61.08;31.40;;;2.50;99.90;;;;;;5113749;28;20039;-71
2020/12/06 00:06:35;;;;;;;69.50;32.13;;;2.50;99.90;;;;;;5117939;27;20063;-73
2020/12/06 00:09:01;;;;;;;71.22;34.72;;;2.50;99.90;;;;;;5107189;28;20027;-73
2020/12/06 00:11:27;;;;;;;68.15;33.50;;;2.50;99.90;;;;;;5111547;28;20029;-72
2020/12/06 00:13:52;;;;;;;62.28;32.38;;;2.50;99.90;;;;;;5112707;28;20032;-72
2020/12/06 00:16:20;;;;;;;75.32;36.25;;;2.50;99.90;;;;;;5114851;28;20047;-72
2020/12/06 00:18:47;;;;;;;69.78;36.30;;;2.50;99.90;;;;;;5113285;28;20085;-73
2020/12/06 00:21:14;;;;;;;75.72;35.33;;;2.50;99.90;;;;;;5111451;28;20030;-72
2020/12/06 00:23:40;;;;;;;65.47;31.80;;;2.50;99.90;;;;;;5100219;27;20036;-72
2020/12/06 00:26:06;;;;;;;64.70;31.48;;;2.50;99.90;;;;;;5102776;28;20114;-72
2020/12/06 00:28:33;;;;;;;68.63;33.65;;;2.50;99.90;;;;;;5114318;28;20106;-72
2020/12/06 00:30:58;;;;;;;63.47;34.22;;;2.50;99.90;;;;;;5113263;28;20038;-72
2020/12/06 00:33:24;;;;;;;67.95;33.40;;;2.50;99.90;;;;;;5113991;28;20419;-72
2020/12/06 00:35:50;;;;;;;75.05;36.30;;;2.50;99.90;;;;;;5113355;28;20096;-71
2020/12/06 00:38:15;;;;;;;67.20;32.88;;;2.50;99.90;;;;;;5113251;28;20580;-71
2020/12/06 00:40:41;;;;;;;76.70;36.97;;;2.50;99.90;;;;;;5114099;28;20046;-71
2020/12/06 00:43:07;;;;;;;71.43;36.35;;;2.60;99.90;;;;;;5112261;28;20063;-71
2020/12/06 00:45:32;;;;;;;77.10;36.75;;;2.60;99.90;;;;;;5095596;28;20032;-71
2020/12/06 00:47:58;;;;;;;80.35;39.67;;;2.60;99.90;;;;;;5094901;28;20016;-73
2020/12/06 00:50:24;;;;;;;79.60;38.15;;;2.60;99.90;;;;;;5113391;28;20030;-72
2020/12/06 00:52:50;;;;;;;82.25;39.35;;;2.60;99.90;;;;;;5108567;28;20036;-72
2020/12/06 00:55:15;;;;;;;81.90;38.13;;;2.50;99.90;;;;;;5113424;28;20026;-71
2020/12/06 00:57:41;;;;;;;80.35;39.97;;;2.50;99.90;;;;;;5113596;28;20361;-73
2020/12/06 01:00:09;;;;;;;85.53;40.17;;;2.50;99.90;;;;;;5112905;28;20059;-71
2020/12/06 01:02:35;;;;;;;81.68;38.10;;;2.50;99.90;;;;;;5113655;28;20062;-71
2020/12/06 01:05:00;;;;;;;91.90;41.55;;;2.50;99.90;;;;;;5110739;28;20414;-71
2020/12/06 01:07:26;;;;;;;85.35;38.10;;;2.50;99.90;;;;;;5093407;28;20019;-71
2020/12/06 01:09:52;;;;;;;99.10;44.10;;;2.40;99.90;;;;;;5094001;28;20031;-71
2020/12/06 01:12:18;;;;;;;88.78;41.97;;;2.40;99.90;;;;;;5113580;28;20034;-71
2020/12/06 01:14:44;;;;;;;98.32;41.42;;;2.40;99.90;;;;;;5111444;28;20110;-71
2020/12/06 01:17:11;;;;;;;106.30;44.65;;;2.40;99.90;;;;;;5113100;28;20027;-72
2020/12/06 01:19:36;;;;;;;96.85;42.13;;;2.40;99.90;;;;;;5112797;28;20024;-71
2020/12/06 01:22:02;;;;;;;92.03;41.33;;;2.40;99.90;;;;;;5108152;28;20088;-71
2020/12/06 01:24:28;;;;;;;103.13;42.90;;;2.40;99.90;;;;;;5094511;28;20034;-71
2020/12/06 01:26:54;;;;;;;96.22;41.92;;;2.40;99.90;;;;;;5112417;28;20032;-71
2020/12/06 01:29:19;;;;;;;88.22;38.47;;;2.40;99.90;;;;;;5112479;28;20076;-71
2020/12/06 01:31:47;;;;;;;94.03;40.70;;;2.40;99.90;;;;;;5112767;28;20024;-71
2020/12/06 01:34:13;;;;;;;91.05;39.92;;;2.30;99.90;;;;;;5112091;28;20030;-71
2020/12/06 01:36:39;;;;;;;102.63;44.08;;;2.30;99.90;;;;;;5112125;28;20036;-71
2020/12/06 01:39:05;;;;;;;106.50;43.03;;;2.30;99.90;;;;;;5111836;28;20019;-73
2020/12/06 01:41:31;;;;;;;101.70;41.70;;;2.30;99.90;;;;;;5112662;28;20034;-71
2020/12/06 01:43:58;;;;;;;102.65;43.90;;;2.30;99.90;;;;;;5114560;27;20055;-72
2020/12/06 01:46:25;;;;;;;105.63;43.25;;;2.30;99.90;;;;;;5120877;27;20050;-72
2020/12/06 01:48:55;;;;;;;95.38;41.65;;;2.30;99.90;;;;;;5115808;27;20118;-72
2020/12/06 01:51:22;;;;;;;93.50;42.33;;;2.30;99.90;;;;;;5123343;27;20063;-72
2020/12/06 01:53:50;;;;;;;110.82;42.95;;;2.30;99.90;;;;;;5117728;27;20031;-72
2020/12/06 01:56:17;;;;;;;95.55;41.50;;;2.30;99.90;;;;;;5119211;27;20114;-72
2020/12/06 01:58:43;;;;;;;100.40;42.97;;;2.30;99.90;;;;;;5102224;27;20031;-74
2020/12/06 02:01:09;;;;;;;99.45;44.47;;;2.30;99.90;;;;;;5119487;27;20438;-72
2020/12/06 02:03:38;;;;;;;99.30;40.53;;;2.30;99.90;;;;;;5118190;27;20039;-72
2020/12/06 02:06:06;;;;;;;97.53;42.70;;;2.30;99.90;;;;;;5119655;27;20633;-72
2020/12/06 02:08:32;;;;;;;93.57;39.90;;;2.30;99.90;;;;;;5120422;27;20032;-72
2020/12/06 02:10:57;;;;;;;95.13;42.22;;;2.30;99.90;;;;;;5120036;27;20034;-72
2020/12/06 02:13:23;;;;;;;94.93;41.03;;;2.30;99.90;;;;;;5119410;27;20405;-72
2020/12/06 02:15:50;;;;;;;102.95;44.92;;;2.30;99.90;;;;;;5118170;27;20523;-73
2020/12/06 02:18:16;;;;;;;95.93;41.60;;;2.30;99.90;;;;;;5119559;27;20054;-72
2020/12/06 02:20:42;;;;;;;102.97;42.10;;;2.30;99.90;;;;;;5120623;27;20126;-73
2020/12/06 02:23:08;;;;;;;88.72;40.15;;;2.40;99.90;;;;;;5119243;27;20613;-73
2020/12/06 02:25:37;;;;;;;97.65;40.63;;;2.30;99.90;;;;;;5119935;27;20503;-73
2020/12/06 02:28:04;;;;;;;89.13;39.03;;;2.30;99.90;;;;;;5121502;27;20444;-73
2020/12/06 02:30:31;;;;;;;91.57;41.08;;;2.30;99.90;;;;;;5121481;27;20040;-73
2020/12/06 02:32:57;;;;;;;98.50;40.63;;;2.30;99.90;;;;;;5120517;27;20081;-73
2020/12/06 02:35:22;;;;;;;95.85;41.90;;;2.30;99.90;;;;;;5119782;27;20034;-73
2020/12/06 02:37:48;;;;;;;94.68;41.47;;;2.30;99.90;;;;;;5118930;27;20020;-73
2020/12/06 02:40:15;;;;;;;86.20;39.13;;;2.30;99.90;;;;;;5121272;27;20019;-73
2020/12/06 02:42:41;;;;;;;83.10;38.60;;;2.20;99.90;;;;;;5117083;27;20479;-73
2020/12/06 02:45:08;;;;;;;91.00;40.33;;;2.20;99.90;;;;;;5121783;27;20019;-73
2020/12/06 02:47:33;;;;;;;84.97;40.00;;;2.20;99.90;;;;;;5122942;27;20062;-73
2020/12/06 02:49:59;;;;;;;94.97;41.30;;;2.10;99.90;;;;;;5121057;27;20043;-73
2020/12/06 02:52:25;;;;;;;91.82;40.50;;;2.10;99.90;;;;;;5121368;27;20026;-73
2020/12/06 02:54:50;;;;;;;95.05;41.95;;;2.10;99.90;;;;;;5118299;27;20031;-73
2020/12/06 02:57:16;;;;;;;100.00;41.72;;;2.10;99.90;;;;;;5121937;28;20016;-73
2020/12/06 02:59:41;;;;;;;93.50;41.95;;;2.10;99.90;;;;;;5121144;28;20032;-73
2020/12/06 03:02:07;;;;;;;89.20;40.00;;;2.10;99.90;;;;;;5118665;28;20196;-74
2020/12/06 03:04:33;;;;;;;95.60;40.78;;;2.10;99.90;;;;;;5120220;28;20032;-74
2020/12/06 03:06:59;;;;;;;93.07;42.65;;;2.10;99.90;;;;;;5118489;28;20511;-73
2020/12/06 03:09:24;;;;;;;93.00;41.08;;;2.10;99.90;;;;;;5093551;28;20392;-71
2020/12/06 03:11:50;;;;;;;97.65;41.28;;;2.10;99.90;;;;;;5110274;28;20028;-72
2020/12/06 03:14:15;;;;;;;90.43;39.10;;;2.10;99.90;;;;;;5111425;28;20031;-72
2020/12/06 03:16:41;;;;;;;86.05;38.47;;;2.00;99.90;;;;;;5111482;28;20150;-72
2020/12/06 03:19:07;;;;;;;83.65;39.80;;;2.00;99.90;;;;;;5110403;28;20039;-72
2020/12/06 03:21:33;;;;;;;85.13;38.40;;;2.00;99.90;;;;;;5111335;28;20057;-73
2020/12/06 03:23:58;;;;;;;91.63;38.08;;;2.00;99.90;;;;;;5109798;28;20035;-72
2020/12/06 03:26:24;;;;;;;86.00;37.58;;;1.90;99.90;;;;;;5111145;28;20042;-72
2020/12/06 03:28:50;;;;;;;91.07;38.80;;;1.90;99.90;;;;;;5110552;28;20055;-72
2020/12/06 03:31:15;;;;;;;95.78;38.88;;;1.90;99.90;;;;;;5113175;28;20028;-71
2020/12/06 03:33:41;;;;;;;105.85;41.90;;;1.90;99.90;;;;;;5124759;28;20073;-72
2020/12/06 03:36:07;;;;;;;104.95;41.08;;;1.90;99.90;;;;;;5109800;28;20058;-72
2020/12/06 03:38:32;;;;;;;109.60;40.50;;;1.90;99.90;;;;;;5110946;28;20376;-72
2020/12/06 03:40:58;;;;;;;108.32;42.78;;;1.90;99.90;;;;;;5109382;28;20066;-72
2020/12/06 03:43:24;;;;;;;109.97;41.30;;;1.90;99.90;;;;;;5110979;28;20056;-72
2020/12/06 03:45:50;;;;;;;136.15;46.17;;;1.80;99.90;;;;;;5115318;28;20027;-72
2020/12/06 03:48:15;;;;;;;120.53;42.47;;;1.80;99.90;;;;;;5110906;28;20020;-72
2020/12/06 03:50:41;;;;;;;117.10;41.90;;;1.80;99.90;;;;;;5111124;28;20341;-72
2020/12/06 03:53:07;;;;;;;122.70;42.30;;;1.80;99.90;;;;;;5110508;28;20525;-72
2020/12/06 03:55:33;;;;;;;135.23;44.47;;;1.80;99.90;;;;;;5110119;28;20031;-72
2020/12/06 03:57:58;;;;;;;134.13;44.25;;;1.80;99.90;;;;;;5110277;28;20031;-72
2020/12/06 04:00:24;;;;;;;158.85;46.63;;;1.80;99.90;;;;;;5111063;28;20024;-72
2020/12/06 04:02:50;;;;;;;154.93;46.13;;;1.80;99.90;;;;;;5113158;28;20062;-73
2020/12/06 04:05:20;;;;;;;151.73;44.92;;;1.70;99.90;;;;;;5114654;28;20035;-72
2020/12/06 04:07:47;;;;;;;151.65;45.45;;;1.70;99.90;;;;;;5122153;27;20023;-72
2020/12/06 04:10:13;;;;;;;145.18;43.38;;;1.70;99.90;;;;;;5113599;28;20027;-72
2020/12/06 04:12:39;;;;;;;156.90;44.90;;;1.70;99.90;;;;;;5114715;28;20429;-72
2020/12/06 04:15:05;;;;;;;157.70;45.33;;;1.70;99.90;;;;;;5113695;28;20035;-72
2020/12/06 04:17:31;;;;;;;157.98;46.75;;;1.70;99.90;;;;;;5114684;28;20024;-73
2020/12/06 04:19:57;;;;;;;165.80;47.08;;;1.70;99.90;;;;;;5113887;28;20399;-72
2020/12/06 04:22:23;;;;;;;182.07;49.33;;;1.60;99.90;;;;;;5113928;28;20039;-72
2020/12/06 04:24:49;;;;;;;174.35;46.42;;;1.60;99.90;;;;;;5114054;28;20034;-72
2020/12/06 04:27:14;;;;;;;186.13;46.70;;;1.60;99.90;;;;;;5114158;28;20019;-72
2020/12/06 04:29:40;;;;;;;179.57;48.38;;;1.60;99.90;;;;;;5114522;28;20106;-72
2020/12/06 04:32:06;;;;;;;177.73;47.17;;;1.60;99.90;;;;;;5113584;28;20047;-71
2020/12/06 04:34:31;;;;;;;172.68;44.22;;;1.60;99.90;;;;;;5097554;27;20471;-73
2020/12/06 04:36:57;;;;;;;187.75;47.90;;;1.60;99.90;;;;;;5129272;27;20016;-74
2020/12/06 04:39:22;;;;;;;168.48;46.05;;;1.60;99.90;;;;;;5113852;28;20019;-72
2020/12/06 04:41:48;;;;;;;172.65;45.75;;;1.60;99.90;;;;;;5113444;28;20073;-72
2020/12/06 04:44:14;;;;;;;158.43;43.85;;;1.60;99.90;;;;;;5112463;28;20051;-72
2020/12/06 04:46:40;;;;;;;184.13;44.83;;;1.50;99.90;;;;;;5095312;28;20063;-72
2020/12/06 04:49:06;;;;;;;161.82;46.25;;;1.60;99.90;;;;;;5113248;28;20055;-72
2020/12/06 04:51:44;;;;;;;166.95;44.70;;;1.50;99.90;;;;;;5113456;28;20467;-72
2020/12/06 04:54:11;;;;;;;178.95;45.67;;;1.50;99.90;;;;;;5112811;28;20687;-72
2020/12/06 04:56:38;;;;;;;178.65;45.00;;;1.50;99.90;;;;;;5113655;28;20035;-72
2020/12/06 04:59:04;;;;;;;174.55;45.78;;;1.50;99.90;;;;;;5112533;28;20489;-72
2020/12/06 05:01:39;;;;;;;188.02;46.22;;;1.50;99.90;;;;;;5113597;28;20058;-71
2020/12/06 05:04:14;;;;;;;178.25;45.08;;;1.50;99.90;;;;;;5112675;28;20031;-73
2020/12/06 05:06:42;;;;;;;151.00;42.25;;;1.50;99.90;;;;;;5113204;28;20097;-72
2020/12/06 05:09:12;;;;;;;147.07;43.35;;;1.50;99.90;;;;;;5112292;28;20389;-72
2020/12/06 05:11:38;;;;;;;154.18;43.78;;;1.60;99.90;;;;;;5112827;28;20055;-72
2020/12/06 05:14:06;;;;;;;165.75;44.70;;;1.60;99.90;;;;;;5112117;28;20114;-72
2020/12/06 05:16:33;;;;;;;119.43;39.78;;;1.60;99.90;;;;;;5112747;28;20077;-72
2020/12/06 05:19:00;;;;;;;132.70;41.50;;;1.60;99.90;;;;;;5112670;28;20038;-72
2020/12/06 05:21:37;;;;;;;136.10;43.92;;;1.50;99.90;;;;;;5113124;28;20070;-72
2020/12/06 05:24:04;;;;;;;135.93;41.72;;;1.50;99.90;;;;;;5112636;28;20059;-72
2020/12/06 05:26:30;;;;;;;143.10;41.90;;;1.60;99.90;;;;;;5112882;28;20024;-72
2020/12/06 05:28:56;;;;;;;142.68;44.40;;;1.50;99.90;;;;;;5111584;28;20476;-73
2020/12/06 05:31:22;;;;;;;142.60;44.33;;;1.50;99.90;;;;;;5112752;28;20116;-72
2020/12/06 05:33:48;;;;;;;138.30;41.80;;;1.50;99.90;;;;;;5094887;28;20156;-72
2020/12/06 05:36:15;;;;;;;143.45;43.15;;;1.50;99.90;;;;;;5112222;28;20036;-73
2020/12/06 05:38:41;;;;;;;152.95;44.65;;;1.50;99.90;;;;;;5112864;28;20055;-72
2020/12/06 05:41:07;;;;;;;150.90;43.47;;;1.50;99.90;;;;;;5111332;28;20027;-73
2020/12/06 05:43:33;;;;;;;155.13;45.63;;;1.50;99.90;;;;;;5111927;28;20511;-72
2020/12/06 05:46:06;;;;;;;123.55;41.67;;;1.50;99.90;;;;;;5111784;28;20039;-72
2020/12/06 05:48:33;;;;;;;124.30;41.58;;;1.50;99.90;;;;;;5112321;28;20031;-73
2020/12/06 05:51:00;;;;;;;125.00;41.05;;;1.50;99.90;;;;;;5111425;28;20027;-72
2020/12/06 05:53:27;;;;;;;120.25;39.58;;;1.50;99.90;;;;;;5112672;28;20099;-72
2020/12/06 05:55:59;;;;;;;119.78;40.75;;;1.60;99.90;;;;;;5111181;28;20110;-72
2020/12/06 05:58:26;;;;;;;110.13;40.15;;;1.50;99.90;;;;;;5112230;28;20031;-72
2020/12/06 06:00:54;;;;;;;115.28;40.17;;;1.60;99.90;;;;;;5112093;28;20069;-72
2020/12/06 06:03:27;;;;;;;116.40;41.22;;;1.60;99.90;;;;;;5103539;28;20028;-72
2020/12/06 06:05:55;;;;;;;103.10;38.60;;;1.60;99.90;;;;;;5098693;27;20531;-72
2020/12/06 06:08:25;;;;;;;115.40;41.10;;;1.50;99.90;;;;;;5094381;28;20490;-72
2020/12/06 06:11:03;;;;;;;108.53;40.22;;;1.50;99.90;;;;;;5111725;28;20027;-73
2020/12/06 06:13:34;;;;;;;101.80;38.72;;;1.50;99.90;;;;;;5105202;28;20524;-73
2020/12/06 06:16:00;;;;;;;118.13;42.47;;;1.50;99.90;;;;;;5093574;28;20077;-72
2020/12/06 06:18:26;;;;;;;93.32;36.33;;;1.50;99.90;;;;;;5111930;28;20024;-72
2020/12/06 06:20:52;;;;;;;100.30;39.10;;;1.50;99.90;;;;;;5093690;28;20028;-72
2020/12/06 06:23:19;;;;;;;107.60;39.17;;;1.50;99.90;;;;;;5111858;28;20036;-72
2020/12/06 06:25:45;;;;;;;110.07;39.90;;;1.50;99.90;;;;;;5110876;28;20062;-72
2020/12/06 06:28:10;;;;;;;116.63;41.80;;;1.50;99.90;;;;;;5110696;28;20375;-72
2020/12/06 06:30:37;;;;;;;111.25;38.47;;;1.50;99.90;;;;;;5112516;28;20028;-72
2020/12/06 06:33:13;;;;;;;115.88;41.28;;;1.50;99.90;;;;;;5111192;28;20028;-73
2020/12/06 06:35:48;;;;;;;113.95;39.20;;;1.60;99.90;;;;;;5109402;28;20460;-73
2020/12/06 06:38:14;;;;;;;122.80;41.38;;;1.60;99.90;;;;;;5111095;28;20019;-73
2020/12/06 06:40:40;;;;;;;107.13;39.60;;;1.60;99.90;;;;;;5122194;27;20032;-73
2020/12/06 06:43:06;;;;;;;103.10;37.05;;;1.60;99.90;;;;;;5110747;28;20067;-72
2020/12/06 06:45:44;;;;;;;107.18;37.67;;;1.60;99.90;;;;;;5110537;28;20043;-72
2020/12/06 06:48:16;;;;;;;119.80;38.85;;;1.60;99.90;;;;;;5110946;28;20023;-72
2020/12/06 06:50:46;;;;;;;119.18;40.20;;;1.60;99.90;;;;;;5111083;28;21751;-72
2020/12/06 06:53:14;;;;;;;;;;;1.60;99.90;;;;;;5111392;28;20036;-72
2020/12/06 06:55:49;;;;;;;109.10;36.58;;;1.60;99.90;;;;;;5111186;28;19918;-72
2020/12/06 06:58:18;;;;;;;122.45;37.17;;;1.60;99.90;;;;;;5110041;28;20083;-72
2020/12/06 07:00:44;;;;;;;109.25;37.10;;;1.70;99.90;;;;;;5111323;28;20062;-72
2020/12/06 07:03:12;;;;;;;123.47;40.13;;;1.70;99.90;;;;;;5110779;28;20059;-71
2020/12/06 07:05:39;;;;;;;135.32;42.22;;;1.70;99.90;;;;;;5113450;28;20047;-72
2020/12/06 07:08:12;;;;;;;128.27;40.58;;;1.70;99.90;;;;;;5116963;28;20027;-72
2020/12/06 07:10:40;;;;;;;139.82;41.53;;;1.70;99.90;;;;;;5111111;28;20106;-72
2020/12/06 07:13:06;;;;;;;129.50;39.92;;;1.70;99.90;;;;;;5110931;28;20035;-72
2020/12/06 07:15:32;;;;;;;134.05;41.47;;;1.80;99.90;;;;;;5111000;28;20028;-72
2020/12/06 07:17:58;;;;;;;134.15;41.80;;;1.80;99.90;;;;;;5110712;28;20078;-72
2020/12/06 07:20:26;;;;;;;136.77;39.88;;;1.80;99.90;;;;;;5111034;28;20416;-72
2020/12/06 07:22:52;;;;;;;137.50;38.38;;;1.80;99.90;;;;;;5111016;28;20225;-72
2020/12/06 07:25:19;;;;;;;122.20;38.47;;;1.80;99.90;;;;;;5110250;28;20077;-73
2020/12/06 07:27:45;;;;;;;151.68;45.28;;;1.80;99.90;;;;;;5110391;28;20023;-71
2020/12/06 07:30:13;;;;;;;148.63;40.75;;;1.80;99.90;;;;;;5109872;28;20455;-73
2020/12/06 07:32:40;;;;;;;127.07;37.28;;;1.80;99.90;;;;;;5111611;28;20028;-73
2020/12/06 07:35:08;;;;;;;157.82;42.42;;;1.80;99.90;;;;;;5110098;28;20027;-74
2020/12/06 07:37:34;;;;;;;138.80;38.75;;;1.90;99.90;;;;;;5115452;28;20036;-73
2020/12/06 07:40:03;;;;;;;141.85;38.58;;;1.90;99.90;;;;;;5113925;28;20030;-73
2020/12/06 07:42:29;;;;;;;141.68;38.38;;;1.90;99.90;;;;;;5115231;28;20047;-73
2020/12/06 07:44:59;;;;;;;137.63;38.72;;;1.90;99.90;;;;;;5125709;27;20031;-73
2020/12/06 07:47:25;;;;;;;111.07;33.17;;;1.90;99.90;;;;;;5110418;28;20031;-73
2020/12/06 07:49:54;;;;;;;136.93;37.08;;;1.90;99.90;;;;;;5115019;28;20039;-73
2020/12/06 07:52:20;;;;;;;122.15;33.33;;;1.90;99.90;;;;;;5114119;28;20058;-73
2020/12/06 07:55:06;;;;;;;135.43;36.88;;;1.90;99.90;;;;;;5114726;28;20077;-73
2020/12/06 07:57:40;;;;;;;124.40;34.20;;;1.90;99.90;;;;;;5112733;28;20503;-73
2020/12/06 08:00:11;;;;;;;129.80;34.15;;;2.00;99.90;;;;;;5095113;28;20096;-73
2020/12/06 08:02:41;;;;;;;141.77;36.83;;;2.00;99.90;;;;;;5096620;28;20505;-73
2020/12/06 08:05:10;;;;;;;119.75;34.90;;;1.90;99.90;;;;;;5113591;28;20038;-73
2020/12/06 08:07:39;;;;;;;114.63;32.65;;;2.00;99.90;;;;;;5117073;27;20042;-73
2020/12/06 08:10:10;;;;;;;118.25;32.15;;;2.00;99.90;;;;;;5113739;28;20367;-73
2020/12/06 08:12:38;;;;;;;117.80;33.38;;;2.00;99.90;;;;;;5097067;28;20036;-74
2020/12/06 08:15:06;;;;;;;149.63;36.70;;;2.00;99.90;;;;;;5113661;28;20027;-74
2020/12/06 08:17:48;;;;;;;121.32;32.13;;;2.00;99.90;;;;;;5114141;28;20035;-75
2020/12/06 08:20:20;;;;;;;124.65;31.45;;;2.00;99.90;;;;;;5110308;28;20046;-74
2020/12/06 08:22:51;;;;;;;162.05;36.10;;;2.00;99.90;;;;;;5094689;28;20073;-74
2020/12/06 08:25:32;;;;;;;117.75;31.50;;;2.10;99.90;;;;;;5093058;28;20077;-75
2020/12/06 08:28:00;;;;;;;140.65;35.40;;;2.10;99.90;;;;;;5094312;28;20035;-74
2020/12/06 08:30:28;;;;;;;111.60;30.15;;;2.10;99.90;;;;;;5112641;28;20150;-75
2020/12/06 08:32:56;;;;;;;94.22;27.60;;;2.10;99.90;;;;;;5095661;28;20031;-75
2020/12/06 08:35:48;;;;;;;96.05;24.55;;;2.10;99.90;;;;;;5113209;28;20050;-75
2020/12/06 08:38:25;;;;;;;131.63;41.47;;;2.20;99.90;;;;;;5113172;28;20027;-75
2020/12/06 08:41:06;;;;;;;128.32;32.10;;;2.20;99.90;;;;;;5112258;28;20020;-75
2020/12/06 08:44:13;;;;;;;80.30;24.88;;;2.20;99.90;;;;;;5080574;28;20481;-76
2020/12/06 08:46:53;;;;;;;82.07;24.77;;;2.20;99.90;;;;;;5092394;28;20016;-77
2020/12/06 08:49:23;;;;;;;118.85;29.02;;;2.20;99.90;;;;;;5091700;28;20469;-77
2020/12/06 08:51:52;;;;;;;93.18;25.02;;;2.20;99.90;;;;;;5093936;28;20020;-75
2020/12/06 08:54:34;;;;;;;96.82;25.17;;;2.20;99.90;;;;;;5088833;28;20637;-75
2020/12/06 08:57:08;;;;;;;87.93;24.45;;;2.30;99.90;;;;;;5085089;28;20086;-74
2020/12/06 08:59:39;;;;;;;67.45;19.48;;;2.30;99.90;;;;;;5092968;28;20039;-76
2020/12/06 09:02:06;;;;;;;72.93;22.05;;;2.30;99.90;;;;;;5091163;28;20020;-74
2020/12/06 09:04:33;;;;;;;76.65;22.77;;;2.30;99.90;;;;;;5093065;28;20038;-74
2020/12/06 09:07:00;;;;;;;59.72;20.80;;;2.30;99.90;;;;;;5098706;28;20050;-73
2020/12/06 09:09:26;;;;;;;63.35;21.52;;;2.40;99.90;;;;;;5092220;28;20032;-75
2020/12/06 09:11:53;;;;;;;57.40;20.60;;;2.40;99.90;;;;;;5099599;28;20472;-72
2020/12/06 09:14:19;;;;;;;60.72;20.95;;;2.50;99.90;;;;;;5091707;28;20040;-72
2020/12/06 09:16:45;;;;;;;61.33;21.85;;;2.50;99.90;;;;;;5092047;28;20077;-75
2020/12/06 09:19:11;;;;;;;64.53;23.15;;;2.50;99.90;;;;;;5093201;28;20039;-73
2020/12/06 09:21:38;;;;;;;58.33;22.17;;;2.50;99.90;;;;;;5091839;28;20089;-76
2020/12/06 09:24:04;;;;;;;66.65;23.55;;;2.60;99.90;;;;;;5091344;28;20036;-75
2020/12/06 09:26:31;;;;;;;64.85;23.50;;;2.60;99.90;;;;;;5092748;28;20066;-74
2020/12/06 09:29:00;;;;;;;54.30;21.33;;;2.70;99.90;;;;;;5093152;28;20028;-78
2020/12/06 09:31:25;;;;;;;53.75;20.30;;;2.70;99.90;;;;;;5091449;28;20028;-76
2020/12/06 09:33:52;;;;;;;49.97;19.00;;;2.70;99.90;;;;;;5091677;28;20043;-78
2020/12/06 09:36:18;;;;;;;49.90;20.23;;;2.70;99.90;;;;;;5091777;28;20104;-75
2020/12/06 09:38:44;;;;;;;44.90;17.45;;;2.70;99.90;;;;;;5093041;28;20028;-82
2020/12/06 09:41:14;;;;;;;49.28;17.70;;;2.80;99.90;;;;;;5091569;28;20055;-82
2020/12/06 09:43:41;;;;;;;55.40;19.50;;;2.80;99.90;;;;;;5106010;28;20047;-78
2020/12/06 09:46:09;;;;;;;40.38;17.08;;;2.80;99.90;;;;;;5112054;28;20031;-78
2020/12/06 09:48:35;;;;;;;48.28;17.95;;;2.80;99.90;;;;;;5121335;27;20106;-76
2020/12/06 09:51:01;;;;;;;47.25;18.75;;;2.80;99.90;;;;;;5118194;27;20106;-77
2020/12/06 09:53:27;;;;;;;42.35;16.83;;;2.80;99.90;;;;;;5112144;28;20175;-83
2020/12/06 09:55:54;;;;;;;44.80;18.55;;;2.90;99.90;;;;;;5113665;28;20037;-75
2020/12/06 09:58:20;;;;;;;39.78;16.70;;;2.90;99.90;;;;;;5111529;28;20518;-75
2020/12/06 10:00:46;;;;;;;39.03;17.15;;;2.90;99.90;;;;;;5103453;28;20031;-76
2020/12/06 10:03:13;;;;;;;39.72;17.48;;;2.90;99.90;;;;;;5111427;28;20025;-77
2020/12/06 10:05:38;;;;;;;40.00;17.35;;;2.90;99.90;;;;;;5112511;28;20028;-76
2020/12/06 10:08:05;;;;;;;31.98;14.85;;;2.90;99.90;;;;;;5111941;28;20432;-75
2020/12/06 10:10:31;;;;;;;34.03;15.68;;;2.90;99.90;;;;;;5111451;28;20023;-74
2020/12/06 10:12:57;;;;;;;36.10;15.57;;;2.90;99.90;;;;;;5111912;28;20039;-74
2020/12/06 10:15:23;;;;;;;32.97;14.32;;;3.00;99.90;;;;;;5112331;28;20448;-73
2020/12/06 10:17:49;;;;;;;28.77;13.88;;;3.00;99.90;;;;;;5094143;28;20106;-74
2020/12/06 10:20:18;;;;;;;31.45;15.45;;;3.00;99.90;;;;;;5100120;28;20134;-73
2020/12/06 10:22:46;;;;;;;32.90;13.65;;;3.00;99.90;;;;;;5111521;28;20104;-74
2020/12/06 10:25:12;;;;;;;38.72;15.85;;;3.00;99.90;;;;;;5106144;28;20024;-73
2020/12/06 10:27:37;;;;;;;30.63;14.93;;;3.00;99.90;;;;;;5108379;28;20023;-72
2020/12/06 10:30:04;;;;;;;31.60;15.32;;;3.00;99.90;;;;;;5110247;28;20027;-73
2020/12/06 10:32:31;;;;;;;34.40;15.43;;;3.00;99.90;;;;;;5111864;28;20038;-74
2020/12/06 10:34:57;;;;;;;31.80;15.43;;;3.00;99.90;;;;;;5112244;28;20027;-73
2020/12/06 10:37:23;;;;;;;33.88;14.88;;;3.10;99.90;;;;;;5111349;28;20020;-73
2020/12/06 10:39:50;;;;;;;34.03;15.90;;;3.00;99.90;;;;;;5111865;28;20023;-74
2020/12/06 10:42:17;;;;;;;37.33;17.10;;;3.10;99.90;;;;;;5110025;28;20020;-75
2020/12/06 10:44:43;;;;;;;29.58;16.23;;;3.00;99.90;;;;;;5111281;28;20032;-75
2020/12/06 10:47:10;;;;;;;33.92;16.20;;;3.10;99.90;;;;;;5110506;28;20380;-76
2020/12/06 10:49:43;;;;;;;32.70;15.82;;;3.10;99.90;;;;;;5110279;28;20028;-75
2020/12/06 10:52:11;;;;;;;33.53;16.75;;;3.10;99.90;;;;;;5110529;27;20082;-77
2020/12/06 10:54:41;;;;;;;31.10;14.88;;;3.10;99.90;;;;;;5115136;28;20028;-73
2020/12/06 10:57:08;;;;;;;26.70;15.10;;;3.10;99.90;;;;;;5110802;28;20460;-76
2020/12/06 10:59:36;;;;;;;33.50;15.35;;;3.10;99.90;;;;;;5103790;28;20084;-72
2020/12/06 11:02:03;;;;;;;32.55;16.70;;;3.10;99.90;;;;;;5111365;28;20118;-75
2020/12/06 11:04:31;;;;;;;34.85;16.48;;;3.10;99.90;;;;;;5100311;28;20042;-77
2020/12/06 11:06:58;;;;;;;33.20;17.08;;;3.10;99.90;;;;;;5102464;28;20023;-74
2020/12/06 11:09:25;;;;;;;32.58;17.00;;;3.10;99.90;;;;;;5110396;28;20035;-73
2020/12/06 11:11:53;;;;;;;34.78;17.08;;;3.20;99.90;;;;;;5114397;28;20028;-74
2020/12/06 11:14:20;;;;;;;35.47;17.17;;;3.20;99.90;;;;;;5114930;28;20156;-72
2020/12/06 11:16:50;;;;;;;35.42;18.65;;;3.20;99.90;;;;;;5096922;28;20098;-73
2020/12/06 11:19:18;;;;;;;32.95;17.98;;;3.20;99.90;;;;;;5114907;28;20068;-73
2020/12/06 11:21:45;;;;;;;33.65;17.33;;;3.20;99.90;;;;;;5115805;28;20034;-75
2020/12/06 11:24:12;;;;;;;38.65;18.25;;;3.20;99.90;;;;;;5114044;28;20039;-79
2020/12/06 11:26:38;;;;;;;31.45;17.35;;;3.30;99.90;;;;;;5115308;28;20028;-76
2020/12/06 11:29:04;;;;;;;34.78;18.25;;;3.30;99.90;;;;;;5115351;28;20583;-73
2020/12/06 11:31:30;;;;;;;32.25;17.08;;;3.30;99.90;;;;;;5096572;28;20051;-73
2020/12/06 11:33:55;;;;;;;29.50;16.45;;;3.30;99.90;;;;;;5110192;28;20106;-75
2020/12/06 11:36:21;;;;;;;32.88;16.80;;;3.30;99.90;;;;;;5092034;28;20150;-75
2020/12/06 11:38:47;;;;;;;35.63;18.45;;;3.30;99.90;;;;;;5115072;28;20506;-74
2020/12/06 11:41:13;;;;;;;32.25;17.40;;;3.30;99.90;;;;;;5114327;28;20038;-74
2020/12/06 11:43:39;;;;;;;31.40;16.77;;;3.30;99.90;;;;;;5113648;28;20046;-75
2020/12/06 11:46:05;;;;;;;35.65;16.90;;;3.30;99.90;;;;;;5115201;28;20363;-76
2020/12/06 11:48:31;;;;;;;36.15;17.48;;;3.30;99.90;;;;;;5114220;28;20034;-75
2020/12/06 11:50:57;;;;;;;38.53;17.73;;;3.30;99.90;;;;;;5110951;28;20027;-72
2020/12/06 11:53:23;;;;;;;39.20;18.77;;;3.40;99.90;;;;;;5113774;28;20036;-73
2020/12/06 11:55:49;;;;;;;34.10;16.77;;;3.40;99.90;;;;;;5114155;28;20052;-76
2020/12/06 11:58:14;;;;;;;31.10;17.80;;;3.40;99.90;;;;;;5114046;28;20024;-77
2020/12/06 12:00:41;;;;;;;35.28;17.23;;;3.40;99.90;;;;;;5096652;28;20365;-75
2020/12/06 12:03:06;;;;;;;33.20;16.88;;;3.40;99.90;;;;;;5113910;28;20043;-79
2020/12/06 12:05:32;;;;;;;34.15;16.77;;;3.40;99.90;;;;;;5115652;27;20031;-75
2020/12/06 12:07:57;;;;;;;40.00;19.33;;;3.40;99.90;;;;;;5097551;28;20034;-77
2020/12/06 12:10:23;;;;;;;33.35;18.27;;;3.50;99.90;;;;;;5113750;28;20039;-77
2020/12/06 12:12:49;;;;;;;33.10;17.20;;;3.50;99.90;;;;;;5114403;28;20031;-75
2020/12/06 12:15:15;;;;;;;33.22;16.85;;;3.40;99.90;;;;;;5112243;28;20020;-78
2020/12/06 12:17:40;;;;;;;34.22;17.80;;;3.50;99.90;;;;;;5115099;28;20059;-72
2020/12/06 12:20:07;;;;;;;35.22;17.05;;;3.50;99.90;;;;;;5114274;28;20044;-76
2020/12/06 12:22:32;;;;;;;35.25;17.50;;;3.50;99.90;;;;;;5112456;28;20040;-78
2020/12/06 12:24:58;;;;;;;32.75;16.60;;;3.60;99.90;;;;;;5114430;28;20142;-76
2020/12/06 12:27:24;;;;;;;36.25;17.85;;;3.60;99.90;;;;;;5112671;28;20027;-72
2020/12/06 12:29:50;;;;;;;33.83;18.00;;;3.60;99.90;;;;;;5114292;28;20036;-75
2020/12/06 12:32:16;;;;;;;37.50;19.60;;;3.70;99.90;;;;;;5113500;28;20067;-76
2020/12/06 12:34:43;;;;;;;29.33;17.02;;;3.80;99.90;;;;;;5114181;28;20456;-76